Latest Weather Observations for Moorabbin Airport

IDV60901

Issued at 6:41 am EST Saturday 27 May 2017 (issued every 10 minutes, with the page automatically refreshed every 10 minutes)

About weather observations | Map of Melbourne area stations | Latest observations for Melbourne area | Other Formats
Station Details ID: 086077 Name: MOORABBIN AIRPORT Lat: -37.98 Lon: 145.10 Height: 12.1 m
Data from the previous 72 hours. | See also: Recent months at Moorabbin Airport
Date/Time
EST
Temp
°C
App
Temp
°C
Dew
Point
°C
Rel
Hum
%
Delta-T
°C
Wind Press
QNH
hPa
Press
MSL
hPa
Rain since
9am
mm
Dir  Spd
km/h
Gust
km/h
Spd
kts
Gust
kts
27/06:30am 13.3 9.6 10.3 82 1.6 N 20 28 11 15 1017.2 1017.2 0.0
27/06:00am 13.6 9.3 10.8 83 1.5 N 24 30 13 16 1017.0 1017.0 0.0
27/05:30am 13.1 9.1 10.6 85 1.3 N 22 30 12 16 1017.0 1017.0 0.0
27/05:00am 12.9 9.9 10.8 87 1.1 N 17 20 9 11 1017.3 1017.3 0.0
27/04:30am 12.7 9.3 10.6 87 1.1 N 19 24 10 13 1017.4 1017.4 0.0
27/04:00am 13.0 9.6 10.7 86 1.2 N 19 26 10 14 1017.5 1017.5 0.0
27/03:30am 12.8 9.5 10.9 88 1.0 N 19 22 10 12 1017.7 1017.7 0.0
27/03:00am 12.1 9.0 10.3 89 0.9 N 17 22 9 12 1018.0 1018.0 0.0
27/02:30am 11.9 8.7 10.1 89 0.9 N 17 22 9 12 1018.2 1018.2 0.0
27/02:00am 11.8 8.7 10.2 90 0.8 N 17 22 9 12 1018.4 1018.4 0.0
27/01:30am 11.8 8.7 10.2 90 0.8 N 17 20 9 11 1018.6 1018.6 0.0
27/01:00am 11.3 8.8 9.7 90 0.8 N 13 17 7 9 1018.8 1018.8 0.0
27/12:30am 10.8 8.9 9.1 89 0.8 N 9 11 5 6 1019.1 1019.1 0.0
27/12:00am 11.0 9.1 9.1 88 0.9 N 9 11 5 6 1019.2 1019.2 0.0
 
Date/Time
EST
Temp
°C
App
Temp
°C
Dew
Point
°C
Rel
Hum
%
Delta-T
°C
Wind Press
QNH
hPa
Press
MSL
hPa
Rain since
9am
mm
Dir  Spd
km/h
Gust
km/h
Spd
kts
Gust
kts
26/11:30pm 11.0 8.7 9.1 88 0.9 NNW 11 13 6 7 1019.4 1019.4 0.0
26/11:00pm 11.1 8.9 9.4 89 0.8 NNW 11 13 6 7 1019.5 1019.5 0.0
26/10:30pm 8.9 6.9 7.2 89 0.8 NNW 7 9 4 5 1019.6 1019.6 0.0
26/10:00pm 9.0 7.2 7.1 88 0.9 N 6 6 3 3 1019.7 1019.7 0.0
26/09:30pm 9.5 7.8 7.4 87 1.0 N 6 7 3 4 1019.9 1019.9 0.0
26/09:00pm 10.0 8.4 7.8 86 1.1 N 6 7 3 4 1019.9 1019.9 0.0
26/08:30pm 10.2 8.4 7.3 82 1.4 N 6 7 3 4 1019.9 1019.9 0.0
26/08:00pm 10.7 10.1 7.4 80 1.6 CALM 0 0 0 0 1019.8 1019.8 0.0
26/07:30pm 11.2 10.7 7.9 80 1.6 CALM 0 6 0 3 1019.8 1019.8 0.0
26/07:00pm 11.3 10.7 7.2 76 2.0 CALM 0 0 0 0 1019.8 1019.8 0.0
26/06:30pm 12.3 11.0 7.6 73 2.3 W 4 6 2 3 1019.7 1019.7 0.0
26/06:00pm 12.9 11.3 8.0 72 2.4 WNW 6 9 3 5 1019.6 1019.6 0.0
26/05:30pm 12.3 10.3 7.0 70 2.5 SSE 7 9 4 5 1019.5 1019.5 0.0
26/05:00pm 12.9 10.9 7.1 68 2.8 S 7 9 4 5 1019.6 1019.6 0.0
26/04:30pm 13.8 11.2 7.8 67 3.0 S 11 13 6 7 1019.6 1019.6 0.0
26/04:00pm 14.4 11.4 7.9 65 3.2 S 13 17 7 9 1019.7 1019.7 0.0
26/03:30pm 14.8 11.8 7.6 62 3.6 S 13 17 7 9 1019.7 1019.7 0.0
26/03:00pm 15.2 12.2 7.7 61 3.7 S 13 15 7 8 1019.7 1019.7 0.0
26/02:30pm 15.4 12.8 7.7 60 3.8 SSW 11 17 6 9 1020.1 1020.1 0.0
26/02:00pm 15.2 12.9 7.5 60 3.8 S 9 15 5 8 1020.3 1020.3 0.0
26/01:30pm 15.3 13.1 7.8 61 3.7 SW 9 13 5 7 1020.7 1020.7 0.0
26/01:00pm 15.3 12.8 8.1 62 3.6 SSW 11 15 6 8 1021.0 1021.0 0.0
26/12:30pm 14.8 12.4 8.7 67 3.1 SW 11 15 6 8 1021.5 1021.5 0.0
26/12:00pm 15.4 14.0 9.7 69 2.9 W 7 11 4 6 1021.9 1021.9 0.0
26/11:30am 14.6 13.0 10.2 75 2.3 WNW 9 13 5 7 1022.5 1022.5 0.0
26/11:00am 14.2 12.4 10.8 80 1.8 W 11 17 6 9 1022.8 1022.8 0.0
26/10:30am 13.8 12.0 11.0 83 1.5 W 11 15 6 8 1022.9 1022.9 0.0
26/10:00am 13.7 12.4 11.4 86 1.2 W 9 13 5 7 1022.8 1022.8 0.0
26/09:30am 13.7 12.2 11.9 89 1.0 W 11 13 6 7 1022.8 1022.8 0.0
26/09:00am 13.5 12.5 12.4 93 0.6 WNW 9 15 5 8 1022.7 1022.7 2.6
26/08:30am 13.0 11.9 12.1 94 0.5 W 9 11 5 6 1022.5 1022.5 2.6
26/08:00am 12.8 11.7 12.0 95 0.4 WNW 9 11 5 6 1022.4 1022.4 2.6
26/07:30am 12.6 11.8 11.8 95 0.4 WNW 7 11 4 6 1022.0 1022.0 2.6
26/07:00am 12.7 11.6 12.1 96 0.3 WSW 9 15 5 8 1021.5 1021.5 2.6
26/06:30am 13.0 11.7 12.4 96 0.3 WNW 11 15 6 8 1021.4 1021.4 2.6
26/06:00am 13.1 11.8 12.5 96 0.3 W 11 17 6 9 1021.1 1021.1 2.6
26/05:36am 12.8 12.2 12.3 97 0.3 W 7 11 4 6 1020.9 1020.9 2.6
26/05:30am 12.7 12.1 12.2 97 0.3 WNW 7 11 4 6 1020.7 1020.7 2.6
26/05:24am 12.7 11.7 12.2 97 0.3 NW 9 13 5 7 1020.7 1020.7 2.6
26/05:00am 12.3 11.7 11.7 96 0.3 NW 6 9 3 5 1020.4 1020.4 2.6
26/04:30am 12.6 12.0 11.8 95 0.4 WNW 6 9 3 5 1020.1 1020.1 2.6
26/04:10am 13.1 12.7 12.3 95 0.4 W 6 7 3 4 1020.0 1020.0 2.6
26/04:00am 13.1 12.7 12.3 95 0.4 W 6 7 3 4 1020.0 1020.0 2.6
26/03:47am 13.1 12.7 12.3 95 0.4 W 6 7 3 4 1020.0 1020.0 2.6
26/03:44am 13.1 12.7 12.3 95 0.4 W 6 7 3 4 1020.0 1020.0 2.6
26/03:30am 13.1 13.1 12.3 95 0.4 WSW 4 7 2 4 1019.9 1019.9 2.6
26/03:00am 13.1 12.1 12.2 94 0.5 SW 9 13 5 7 1019.7 1019.7 2.6
26/02:30am 13.0 11.8 11.7 92 0.7 WNW 9 13 5 7 1019.7 1019.7 2.6
26/02:00am 13.2 12.3 11.3 88 1.0 WNW 7 13 4 7 1019.6 1019.6 2.0
26/01:47am 13.1 12.0 10.8 86 1.2 WSW 7 9 4 5 1019.6 1019.6 1.4
26/01:30am 13.5 12.0 10.7 83 1.5 WNW 9 17 5 9 1019.5 1019.5 0.6
26/01:26am 13.6 11.8 10.8 83 1.5 NW 11 17 6 9 1019.5 1019.5 0.2
26/01:00am 13.8 10.8 10.6 81 1.7 NNW 17 20 9 11 1019.1 1019.1 0.0
26/12:30am 13.6 10.5 10.2 80 1.8 NNW 17 22 9 12 1019.2 1019.2 0.0
26/12:00am 14.1 10.6 10.3 78 2.0 NNW 19 26 10 14 1019.2 1019.2 0.0
 
Date/Time
EST
Temp
°C
App
Temp
°C
Dew
Point
°C
Rel
Hum
%
Delta-T
°C
Wind Press
QNH
hPa
Press
MSL
hPa
Rain since
9am
mm
Dir  Spd
km/h
Gust
km/h
Spd
kts
Gust
kts
25/11:30pm 14.1 11.3 10.1 77 2.1 NNW 15 20 8 11 1019.2 1019.2 0.0
25/11:00pm 14.0 10.5 10.2 78 2.0 N 19 28 10 15 1019.0 1019.0 0.0
25/10:30pm 14.1 10.4 10.3 78 2.0 NNW 20 30 11 16 1019.2 1019.2 0.0
25/10:00pm 14.1 10.4 10.3 78 2.0 NNW 20 32 11 17 1019.1 1019.1 0.0
25/09:30pm 14.0 10.6 10.4 79 1.9 N 19 26 10 14 1018.9 1018.9 0.0
25/09:00pm 14.0 10.4 10.4 79 1.9 N 20 24 11 13 1018.8 1018.8 0.0
25/08:30pm 14.3 11.6 10.5 78 2.0 N 15 20 8 11 1018.8 1018.8 0.0
25/08:00pm 14.7 10.7 10.5 76 2.2 N 22 30 12 16 1018.7 1018.7 0.0
25/07:30pm 15.6 11.9 10.2 70 2.8 NNW 20 30 11 16 1018.8 1018.8 0.0
25/07:00pm 15.7 11.9 9.8 68 3.1 N 20 30 11 16 1018.7 1018.7 0.0
25/06:30pm 15.6 12.4 9.9 69 3.0 N 17 22 9 12 1018.7 1018.7 0.0
25/06:00pm 15.8 12.1 10.1 69 3.0 N 20 24 11 13 1018.5 1018.5 0.0
25/05:30pm 17.0 13.2 9.7 62 3.8 NNW 20 32 11 17 1018.3 1018.3 0.0
25/05:00pm 17.0 13.1 9.4 61 4.0 NNW 20 30 11 16 1018.2 1018.2 0.0
25/04:30pm 17.3 13.9 9.2 59 4.2 NW 17 30 9 16 1017.9 1017.9 0.0
25/04:00pm 17.3 15.1 9.5 60 4.1 NW 11 17 6 9 1018.0 1018.0 0.0
25/03:30pm 16.4 14.9 9.3 63 3.7 NNE 7 9 4 5 1018.0 1018.0 0.0
25/03:00pm 16.2 12.9 9.4 64 3.5 NNE 17 20 9 11 1017.9 1017.9 0.0
25/02:30pm 15.8 11.8 9.0 64 3.5 N 20 24 11 13 1018.2 1018.2 0.0
25/02:00pm 16.2 11.4 8.7 61 3.8 N 24 32 13 17 1018.3 1018.3 0.0
25/01:30pm 16.0 11.5 8.5 61 3.8 N 22 30 12 16 1018.6 1018.6 0.0
25/01:00pm 16.0 10.7 8.5 61 3.8 N 26 35 14 19 1019.0 1019.0 0.0
25/12:30pm 17.1 12.2 8.5 57 4.4 N 24 33 13 18 1019.2 1019.2 0.0
25/12:00pm 16.2 11.2 7.9 58 4.2 N 24 35 13 19 1019.9 1019.9 0.0
25/11:30am 15.6 11.2 7.6 59 4.0 NNW 20 30 11 16 1020.5 1020.5 0.0
25/11:00am 14.5 10.6 7.1 61 3.6 NW 17 26 9 14 1020.9 1020.9 0.0
25/10:30am 14.4 9.6 7.5 63 3.4 NW 22 32 12 17 1020.9 1020.9 0.0
25/10:00am 14.2 10.5 7.9 66 3.1 WNW 17 30 9 16 1020.9 1020.9 0.0
25/09:30am 14.2 10.1 7.9 66 3.1 NW 19 28 10 15 1020.8 1020.8 0.0
25/09:00am 13.9 10.6 8.1 68 2.9 NNW 15 20 8 11 1020.6 1020.6 0.0
25/08:30am 13.8 10.6 8.4 70 2.7 NNW 15 20 8 11 1020.4 1020.4 0.0
25/08:00am 13.4 10.4 9.1 75 2.2 N 15 20 8 11 1020.1 1020.1 0.0
25/07:30am 13.1 10.9 9.2 77 2.0 N 11 15 6 8 1020.1 1020.1 0.0
25/07:00am 13.3 11.5 9.4 77 2.0 N 9 11 5 6 1020.0 1020.0 0.0
25/06:30am 13.4 11.8 8.9 74 2.3 N 7 11 4 6 1020.0 1020.0 0.0
25/06:00am 13.6 12.1 9.3 75 2.2 WNW 7 13 4 7 1019.9 1019.9 0.0
25/05:30am 13.5 11.7 9.4 76 2.1 NW 9 13 5 7 1019.7 1019.7 0.0
25/05:00am 13.5 11.7 9.4 76 2.1 NNW 9 13 5 7 1019.8 1019.8 0.0
25/04:30am 13.5 11.7 9.4 76 2.1 NW 9 17 5 9 1019.6 1019.6 0.0
25/04:00am 13.7 11.1 9.2 74 2.3 WNW 13 17 7 9 1019.4 1019.4 0.0
25/03:30am 13.8 11.1 9.0 73 2.4 WNW 13 20 7 11 1019.4 1019.4 0.0
25/03:00am 13.7 11.6 9.6 76 2.1 WNW 11 17 6 9 1019.5 1019.5 0.0
25/02:30am 13.7 11.6 9.7 77 2.1 NW 11 19 6 10 1019.4 1019.4 0.0
25/02:00am 13.8 11.6 9.5 75 2.2 NW 11 17 6 9 1019.7 1019.7 0.0
25/01:30am 13.7 10.6 9.0 73 2.4 NNW 15 19 8 10 1019.7 1019.7 0.0
25/01:00am 13.3 11.8 9.0 75 2.2 NNW 7 13 4 7 1019.8 1019.8 0.0
25/12:30am 13.7 11.9 9.4 75 2.2 NW 9 13 5 7 1019.9 1019.9 0.0
25/12:00am 13.8 11.5 9.0 73 2.4 NW 11 15 6 8 1020.0 1020.0 0.0
 
Date/Time
EST
Temp
°C
App
Temp
°C
Dew
Point
°C
Rel
Hum
%
Delta-T
°C
Wind Press
QNH
hPa
Press
MSL
hPa
Rain since
9am
mm
Dir  Spd
km/h
Gust
km/h
Spd
kts
Gust
kts
24/11:30pm 13.9 11.5 8.7 71 2.6 NW 11 15 6 8 1020.0 1020.0 0.0
24/11:00pm 13.5 11.3 9.2 75 2.2 NW 11 15 6 8 1020.0 1020.0 0.0
24/10:30pm 13.0 11.1 9.1 77 2.0 NW 9 13 5 7 1020.0 1020.0 0.0
24/10:00pm 13.2 11.7 9.1 76 2.1 WNW 7 11 4 6 1020.0 1020.0 0.0
24/09:30pm 13.7 11.9 9.4 75 2.2 WNW 9 13 5 7 1019.9 1019.9 0.0
24/09:00pm 14.0 11.3 9.0 72 2.5 W 13 20 7 11 1019.8 1019.8 0.0
24/08:30pm 14.4 11.7 8.8 69 2.8 W 13 20 7 11 1019.5 1019.5 0.0
24/08:00pm 14.6 11.8 8.5 67 3.1 WNW 13 20 7 11 1019.4 1019.4 0.0
24/07:30pm 14.7 11.4 8.0 64 3.3 W 15 22 8 12 1019.2 1019.2 0.0
24/07:00pm 14.5 12.4 8.2 66 3.1 WNW 9 13 5 7 1018.9 1018.9 0.0
24/06:30pm 14.5 12.5 8.7 68 2.9 WNW 9 11 5 6 1018.8 1018.8 0.0
24/06:00pm 14.1 12.6 9.3 73 2.4 NW 7 11 4 6 1018.5 1018.5 0.0
24/05:30pm 13.7 12.1 8.7 72 2.5 NW 7 7 4 4 1018.2 1018.2 0.0
24/05:00pm 14.1 12.1 8.7 70 2.7 W 9 13 5 7 1018.0 1018.0 0.0
24/04:30pm 14.6 11.4 8.5 67 3.1 WSW 15 24 8 13 1017.8 1017.8 0.0
24/04:00pm 15.0 12.3 8.9 67 3.1 WSW 13 26 7 14 1017.4 1017.4 0.0
24/03:30pm 15.9 12.1 9.1 64 3.5 W 19 26 10 14 1016.9 1016.9 0.0
24/03:00pm 15.6 10.6 8.1 61 3.8 W 24 39 13 21 1016.7 1016.7 0.0
24/02:30pm 15.0 10.9 8.5 65 3.3 WSW 20 35 11 19 1016.4 1016.4 0.0
24/02:00pm 15.5 11.5 9.2 66 3.2 W 20 35 11 19 1016.1 1016.1 0.0
24/01:30pm 15.7 11.7 9.1 65 3.4 W 20 32 11 17 1015.9 1015.9 0.0
24/01:00pm 16.1 12.3 9.8 66 3.3 W 20 32 11 17 1015.9 1015.9 0.0
24/12:30pm 15.9 11.9 9.1 64 3.5 W 20 28 11 15 1015.9 1015.9 0.0
24/12:00pm 15.7 11.9 9.8 68 3.1 W 20 32 11 17 1016.2 1016.2 0.0
24/11:30am 16.1 11.6 10.2 68 3.1 W 24 33 13 18 1016.3 1016.3 0.0
24/11:00am 15.5 11.3 9.6 68 3.1 W 22 35 12 19 1016.3 1016.3 0.0
24/10:30am 15.2 10.9 9.3 68 3.0 WNW 22 35 12 19 1016.1 1016.1 0.0
24/10:00am 14.8 10.4 9.0 68 3.0 WNW 22 33 12 18 1015.9 1015.9 0.0
24/09:30am 14.8 10.8 9.0 68 3.0 WNW 20 28 11 15 1015.3 1015.3 0.0
24/09:00am 14.1 11.3 8.7 70 2.7 NW 13 20 7 11 1015.1 1015.1 0.2
24/08:30am 12.8 9.8 7.9 72 2.4 NW 13 19 7 10 1014.9 1014.9 0.2
24/08:00am 12.6 10.1 8.3 75 2.1 NNW 11 15 6 8 1014.6 1014.6 0.2
24/07:30am 12.6 9.7 8.1 74 2.2 NW 13 20 7 11 1014.2 1014.2 0.2
24/07:00am 13.4 10.6 8.5 72 2.4 NW 13 20 7 11 1013.9 1013.9 0.2

Latest Capital City Observations: Canberra | Sydney | Melbourne | Brisbane | Adelaide | Perth | Hobart | Darwin

Other Formats:

Comma delimited format used in spreadsheet applications
http://www.bom.gov.au/fwo/IDV60901/IDV60901.94870.axf

JavaScript Object Notation format (JSON) in row-major order
http://www.bom.gov.au/fwo/IDV60901/IDV60901.94870.json